Time;durP1;ratioP1;P1;durP2;ratioP2;P2;SDS_P1;SDS_P2;PMS_P1;PMS_P2;Temp;Humidity;BMP_temperature;BMP_pressure;BME280_temperature;BME280_humidity;BME280_pressure;Samples;Min_cycle;Max_cycle;Signal;HPM_P1;HPM_P2
2022/11/09 00:00:40;;;;;;;14.00;7.90;;;10.40;87.90;;;;;;5002878;28;20177;-71
2022/11/09 00:03:06;;;;;;;13.98;9.07;;;10.30;87.50;;;;;;5004392;28;20676;-72
2022/11/09 00:05:32;;;;;;;14.32;8.65;;;10.30;87.10;;;;;;5003147;28;20252;-73
2022/11/09 00:07:58;;;;;;;15.38;8.55;;;10.30;87.90;;;;;;5005897;28;20200;-71
2022/11/09 00:10:24;;;;;;;8.47;7.43;;;10.30;87.60;;;;;;4987041;28;20578;-73
2022/11/09 00:12:49;;;;;;;11.45;8.35;;;10.30;87.00;;;;;;5003681;28;20187;-71
2022/11/09 00:15:15;;;;;;;12.77;8.35;;;10.30;87.50;;;;;;5005366;28;20196;-72
2022/11/09 00:17:41;;;;;;;12.10;8.13;;;10.30;88.40;;;;;;5006794;28;20216;-73
2022/11/09 00:20:07;;;;;;;12.35;8.25;;;10.30;89.10;;;;;;5006877;28;20664;-72
2022/11/09 00:22:32;;;;;;;14.85;8.63;;;10.30;89.40;;;;;;5006930;28;20185;-72
2022/11/09 00:24:58;;;;;;;11.68;7.53;;;10.30;88.50;;;;;;5008328;28;20220;-72
2022/11/09 00:27:24;;;;;;;14.52;8.48;;;10.30;89.40;;;;;;5008676;28;20177;-72
2022/11/09 00:29:49;;;;;;;13.30;9.00;;;10.30;88.80;;;;;;5006770;28;20216;-72
2022/11/09 00:32:15;;;;;;;17.48;8.63;;;10.30;88.60;;;;;;5006995;28;20185;-72
2022/11/09 00:34:41;;;;;;;11.05;7.63;;;10.30;89.30;;;;;;5007571;28;20211;-73
2022/11/09 00:37:06;;;;;;;13.60;8.57;;;10.30;88.80;;;;;;4989441;28;20213;-71
2022/11/09 00:39:32;;;;;;;14.63;8.20;;;10.30;88.50;;;;;;5008194;28;20244;-70
2022/11/09 00:41:58;;;;;;;15.23;8.68;;;10.30;88.10;;;;;;5006090;28;20271;-70
2022/11/09 00:44:23;;;;;;;13.95;7.93;;;10.30;88.00;;;;;;5006728;28;20215;-72
2022/11/09 00:46:49;;;;;;;17.13;8.38;;;10.20;87.30;;;;;;5006740;28;20173;-72
2022/11/09 00:49:15;;;;;;;12.98;9.38;;;10.20;87.10;;;;;;4988709;28;20193;-72
2022/11/09 00:51:41;;;;;;;13.82;7.55;;;10.20;87.10;;;;;;5007587;28;20608;-72
2022/11/09 00:54:07;;;;;;;11.65;7.68;;;10.30;87.70;;;;;;5007047;28;20247;-72
2022/11/09 00:56:32;;;;;;;17.33;8.98;;;10.30;87.90;;;;;;5007009;28;20228;-72
2022/11/09 00:58:58;;;;;;;19.33;8.90;;;10.30;87.80;;;;;;5005820;28;20663;-72
2022/11/09 01:01:24;;;;;;;14.38;9.10;;;10.30;87.50;;;;;;5006883;28;21581;-72
2022/11/09 01:03:50;;;;;;;13.82;8.93;;;10.30;87.40;;;;;;5007513;28;20188;-72
2022/11/09 01:06:22;;;;;;;15.48;9.13;;;10.30;87.10;;;;;;5006316;28;20749;-72
2022/11/09 01:08:47;;;;;;;12.55;8.38;;;10.20;87.00;;;;;;5006825;28;20192;-72
2022/11/09 01:11:14;;;;;;;13.02;8.32;;;10.30;87.40;;;;;;5006160;28;20188;-72
2022/11/09 01:13:40;;;;;;;15.10;8.65;;;10.30;88.20;;;;;;5006694;28;20212;-72
2022/11/09 01:16:15;;;;;;;10.88;7.82;;;10.30;88.20;;;;;;5005134;28;20205;-72
2022/11/09 01:18:41;;;;;;;10.05;8.13;;;10.30;87.70;;;;;;5005420;28;20862;-71
2022/11/09 01:21:10;;;;;;;12.82;8.23;;;10.30;87.90;;;;;;5007090;28;20184;-72
2022/11/09 01:23:36;;;;;;;9.45;7.35;;;10.20;88.00;;;;;;5007653;28;20188;-72
2022/11/09 01:26:06;;;;;;;15.45;8.18;;;10.20;88.20;;;;;;5004285;28;20228;-71
2022/11/09 01:28:32;;;;;;;12.60;8.68;;;10.20;88.20;;;;;;5003905;28;20189;-71
2022/11/09 01:31:03;;;;;;;12.55;8.45;;;10.20;88.40;;;;;;5004422;28;20554;-72
2022/11/09 01:33:29;;;;;;;16.65;8.02;;;10.20;87.90;;;;;;4987886;28;20659;-71
2022/11/09 01:36:04;;;;;;;13.30;8.50;;;10.20;88.80;;;;;;5006458;28;20196;-72
2022/11/09 01:38:30;;;;;;;18.73;9.30;;;10.20;89.20;;;;;;5004137;28;20197;-72
2022/11/09 01:40:55;;;;;;;16.55;8.90;;;10.20;89.50;;;;;;4988384;28;20193;-72
2022/11/09 01:43:23;;;;;;;16.30;9.02;;;10.20;90.10;;;;;;5004932;28;20189;-71
2022/11/09 01:45:54;;;;;;;13.43;7.70;;;10.20;89.90;;;;;;4987536;28;20213;-71
2022/11/09 01:48:30;;;;;;;12.73;8.25;;;10.20;90.40;;;;;;5004975;28;20585;-72
2022/11/09 01:51:00;;;;;;;14.07;7.97;;;10.10;89.80;;;;;;5005149;28;20208;-72
2022/11/09 01:53:30;;;;;;;16.95;8.55;;;10.10;89.70;;;;;;5005101;28;20301;-72
2022/11/09 01:56:01;;;;;;;14.48;8.02;;;10.10;89.70;;;;;;5004293;28;20193;-72
2022/11/09 01:58:36;;;;;;;12.50;7.65;;;10.10;89.70;;;;;;4988319;28;20181;-72
2022/11/09 02:01:02;;;;;;;13.50;8.20;;;10.10;90.10;;;;;;5004622;28;20189;-73
2022/11/09 02:03:30;;;;;;;13.75;8.15;;;10.10;90.10;;;;;;5003878;28;20686;-73
2022/11/09 02:05:58;;;;;;;15.23;8.83;;;10.10;90.60;;;;;;5005208;28;20381;-72
2022/11/09 02:08:25;;;;;;;13.15;8.52;;;10.10;90.20;;;;;;5006459;28;20185;-72
2022/11/09 02:11:08;;;;;;;15.57;7.88;;;10.00;90.30;;;;;;4987244;28;20279;-72
2022/11/09 02:13:34;;;;;;;11.10;7.22;;;10.00;90.10;;;;;;5006876;28;20201;-72
2022/11/09 02:16:01;;;;;;;13.57;7.68;;;10.10;90.60;;;;;;5004759;28;20722;-72
2022/11/09 02:18:27;;;;;;;12.05;7.97;;;10.10;90.30;;;;;;5006133;28;20200;-73
2022/11/09 02:20:54;;;;;;;11.77;7.80;;;10.20;90.50;;;;;;5005971;28;20264;-71
2022/11/09 02:23:21;;;;;;;12.85;7.97;;;10.20;90.10;;;;;;5004902;28;20192;-71
2022/11/09 02:26:05;;;;;;;16.23;8.73;;;10.20;90.00;;;;;;5003557;28;20284;-71
2022/11/09 02:28:31;;;;;;;11.93;7.20;;;10.00;89.80;;;;;;5005114;28;20187;-72
2022/11/09 02:30:58;;;;;;;11.17;7.53;;;10.10;90.50;;;;;;5006896;28;20177;-71
2022/11/09 02:33:24;;;;;;;12.40;8.00;;;10.10;90.40;;;;;;5005770;28;20209;-72
2022/11/09 02:35:50;;;;;;;13.52;8.00;;;10.10;90.30;;;;;;5006251;28;20649;-72
2022/11/09 02:38:15;;;;;;;14.70;7.90;;;10.10;90.30;;;;;;5005405;28;20233;-72
2022/11/09 02:40:45;;;;;;;12.32;7.93;;;10.10;90.10;;;;;;5003309;28;20576;-72
2022/11/09 02:43:13;;;;;;;9.53;7.43;;;10.20;89.90;;;;;;5006533;28;20230;-72
2022/11/09 02:45:39;;;;;;;13.18;8.23;;;10.20;89.70;;;;;;5007624;28;20963;-72
2022/11/09 02:48:05;;;;;;;12.63;8.13;;;10.10;89.30;;;;;;5004854;28;20220;-72
2022/11/09 02:50:31;;;;;;;12.30;7.70;;;10.10;89.50;;;;;;5004454;28;20193;-72
2022/11/09 02:52:56;;;;;;;10.82;7.40;;;10.20;89.50;;;;;;5004834;28;20579;-72
2022/11/09 02:55:22;;;;;;;8.48;7.03;;;10.10;88.90;;;;;;5004625;28;21200;-72
2022/11/09 02:57:48;;;;;;;13.63;7.53;;;10.10;89.00;;;;;;5005765;28;20189;-72
2022/11/09 03:00:14;;;;;;;13.00;8.50;;;10.20;89.30;;;;;;5006681;28;20185;-72
2022/11/09 03:02:40;;;;;;;10.20;7.50;;;10.20;88.90;;;;;;5005547;28;20316;-72
2022/11/09 03:05:06;;;;;;;12.98;7.60;;;10.10;88.60;;;;;;5004771;28;20223;-73
2022/11/09 03:07:32;;;;;;;10.18;7.75;;;10.20;89.40;;;;;;4986512;28;20197;-72
2022/11/09 03:09:58;;;;;;;10.50;7.45;;;10.20;89.00;;;;;;5007450;28;20244;-72
2022/11/09 03:12:29;;;;;;;13.77;8.73;;;10.10;89.20;;;;;;5004871;28;20751;-72
2022/11/09 03:15:00;;;;;;;13.02;8.30;;;10.10;89.20;;;;;;5003657;28;20226;-72
2022/11/09 03:17:26;;;;;;;10.93;7.82;;;10.10;88.80;;;;;;5003050;28;20189;-73
2022/11/09 03:19:53;;;;;;;14.02;8.88;;;10.00;88.80;;;;;;5004912;28;20181;-72
2022/11/09 03:22:18;;;;;;;14.48;7.97;;;10.00;89.70;;;;;;5002939;28;20192;-71
2022/11/09 03:24:44;;;;;;;10.25;7.63;;;10.00;90.30;;;;;;5004081;28;20212;-73
2022/11/09 03:27:10;;;;;;;10.20;7.63;;;9.90;90.10;;;;;;5003894;28;20180;-71
2022/11/09 03:29:36;;;;;;;14.82;8.57;;;9.90;90.00;;;;;;5003317;28;20185;-71
2022/11/09 03:32:02;;;;;;;16.00;7.78;;;9.80;90.00;;;;;;5003825;28;20246;-72
2022/11/09 03:34:28;;;;;;;11.77;7.45;;;9.80;90.30;;;;;;5006276;28;20184;-73
2022/11/09 03:36:53;;;;;;;14.63;8.57;;;9.80;90.20;;;;;;5004366;28;20188;-73
2022/11/09 03:39:19;;;;;;;11.80;7.68;;;9.70;90.40;;;;;;5007430;28;20173;-72
2022/11/09 03:41:45;;;;;;;13.67;8.10;;;9.70;90.90;;;;;;5005101;28;20180;-72
2022/11/09 03:44:10;;;;;;;17.65;8.57;;;9.70;91.30;;;;;;5004470;28;20291;-71
2022/11/09 03:46:36;;;;;;;10.80;7.23;;;9.60;91.20;;;;;;5004205;28;20177;-71
2022/11/09 03:49:02;;;;;;;11.45;7.22;;;9.50;91.10;;;;;;5004836;28;20188;-72
2022/11/09 03:51:27;;;;;;;15.40;8.77;;;9.50;91.10;;;;;;4990530;28;20276;-72
2022/11/09 03:53:53;;;;;;;14.60;8.23;;;9.50;91.00;;;;;;5008050;28;20650;-73
2022/11/09 03:56:19;;;;;;;13.40;7.83;;;9.50;91.10;;;;;;5009863;28;20193;-71
2022/11/09 03:58:44;;;;;;;12.37;7.60;;;9.40;90.90;;;;;;5007769;28;20177;-72
2022/11/09 04:01:10;;;;;;;13.00;8.20;;;9.30;90.70;;;;;;5008198;28;20200;-72
2022/11/09 04:03:37;;;;;;;13.03;7.83;;;9.20;90.50;;;;;;5007859;28;20192;-71
2022/11/09 04:06:03;;;;;;;10.17;6.93;;;9.20;90.50;;;;;;5008056;28;20224;-72
2022/11/09 04:08:29;;;;;;;11.73;7.03;;;9.20;90.90;;;;;;5008774;28;20219;-72
2022/11/09 04:10:55;;;;;;;15.50;8.67;;;9.10;90.50;;;;;;5007108;28;20761;-73
2022/11/09 04:13:20;;;;;;;12.07;7.57;;;9.10;90.30;;;;;;5008007;28;20189;-72
2022/11/09 04:15:46;;;;;;;12.00;7.73;;;9.10;90.10;;;;;;5005451;28;20185;-72
2022/11/09 04:18:14;;;;;;;9.80;8.00;;;9.10;90.10;;;;;;5007313;28;20569;-72
2022/11/09 04:20:40;;;;;;;13.20;7.57;;;9.10;90.10;;;;;;5007127;28;20188;-72
2022/11/09 04:23:08;;;;;;;12.93;7.43;;;9.10;90.10;;;;;;5006914;28;20189;-71
2022/11/09 04:25:36;;;;;;;9.93;7.73;;;9.10;90.60;;;;;;5005268;28;20219;-72
2022/11/09 04:28:03;;;;;;;10.60;6.93;;;9.10;90.40;;;;;;4988598;28;20264;-71
2022/11/09 04:30:31;;;;;;;10.60;7.15;;;9.10;91.00;;;;;;5006924;28;20670;-73
2022/11/09 04:32:58;;;;;;;11.83;7.03;;;9.00;90.80;;;;;;5006366;28;20220;-71
2022/11/09 04:35:25;;;;;;;11.07;7.23;;;9.00;90.80;;;;;;5005809;28;20228;-73
2022/11/09 04:37:58;;;;;;;10.23;7.70;;;9.00;90.90;;;;;;5006628;28;20181;-71
2022/11/09 04:40:25;;;;;;;13.40;7.20;;;8.90;90.50;;;;;;5007913;28;20181;-72
2022/11/09 04:42:51;;;;;;;14.30;8.03;;;8.80;90.70;;;;;;5007419;28;20177;-73
2022/11/09 04:45:17;;;;;;;12.02;8.02;;;8.80;90.50;;;;;;5007315;28;20287;-73
2022/11/09 04:47:43;;;;;;;10.00;7.67;;;8.80;90.90;;;;;;5009468;28;20771;-73
2022/11/09 04:50:09;;;;;;;13.13;7.43;;;8.70;90.70;;;;;;5006677;28;20272;-71
2022/11/09 04:52:34;;;;;;;11.03;7.53;;;8.70;90.40;;;;;;5006335;28;20639;-71
2022/11/09 04:55:00;;;;;;;9.07;7.77;;;8.70;90.70;;;;;;5008302;28;20577;-72
2022/11/09 04:57:26;;;;;;;14.00;8.40;;;8.70;91.00;;;;;;5005768;28;20671;-72
2022/11/09 04:59:52;;;;;;;11.37;7.63;;;8.70;90.90;;;;;;5006399;28;20181;-72
2022/11/09 05:02:17;;;;;;;12.97;8.07;;;8.70;90.90;;;;;;5004024;28;20177;-72
2022/11/09 05:04:43;;;;;;;8.20;6.83;;;8.60;90.60;;;;;;5007544;28;20220;-72
2022/11/09 05:07:08;;;;;;;11.73;7.23;;;8.60;90.70;;;;;;5006095;28;20173;-73
2022/11/09 05:09:34;;;;;;;10.93;7.97;;;8.60;91.10;;;;;;5007847;28;20268;-72
2022/11/09 05:12:00;;;;;;;10.80;6.90;;;8.70;91.00;;;;;;5005120;28;20553;-73
2022/11/09 05:14:26;;;;;;;9.40;7.33;;;8.70;91.30;;;;;;5005318;28;20264;-72
2022/11/09 05:16:51;;;;;;;11.00;7.30;;;8.70;91.50;;;;;;5005707;28;20663;-71
2022/11/09 05:19:17;;;;;;;8.93;6.93;;;8.70;91.70;;;;;;5003030;28;20245;-73
2022/11/09 05:21:42;;;;;;;11.83;7.50;;;8.70;92.00;;;;;;5005171;28;20185;-72
2022/11/09 05:24:09;;;;;;;10.73;7.43;;;8.70;91.80;;;;;;4985507;28;20210;-71
2022/11/09 05:26:37;;;;;;;10.33;7.63;;;8.70;91.80;;;;;;5000435;28;20177;-71
2022/11/09 05:29:06;;;;;;;12.73;7.87;;;8.70;91.80;;;;;;5002598;28;20224;-71
2022/11/09 05:31:32;;;;;;;11.07;7.77;;;8.70;91.90;;;;;;4999899;28;20288;-72
2022/11/09 05:33:58;;;;;;;11.43;7.73;;;8.70;92.10;;;;;;5005233;28;20177;-73
2022/11/09 05:36:26;;;;;;;9.03;6.97;;;8.70;92.40;;;;;;5003474;28;20196;-72
2022/11/09 05:38:52;;;;;;;10.30;7.20;;;8.70;92.20;;;;;;4987084;28;20651;-71
2022/11/09 05:41:18;;;;;;;13.33;8.53;;;8.70;92.30;;;;;;5004725;28;20256;-72
2022/11/09 05:43:44;;;;;;;9.17;7.50;;;8.70;92.80;;;;;;5002893;28;20258;-71
2022/11/09 05:46:12;;;;;;;11.73;7.37;;;8.70;92.40;;;;;;5002965;28;20215;-71
2022/11/09 05:48:38;;;;;;;12.43;8.20;;;8.70;92.30;;;;;;5001805;28;20250;-72
2022/11/09 05:51:05;;;;;;;12.00;7.90;;;8.70;92.40;;;;;;5003275;28;20213;-71
2022/11/09 05:53:33;;;;;;;10.50;7.43;;;8.80;92.30;;;;;;5004982;28;20667;-71
2022/11/09 05:56:07;;;;;;;10.33;7.97;;;8.80;92.30;;;;;;4982560;28;20219;-72
2022/11/09 05:58:36;;;;;;;11.73;7.80;;;8.80;92.50;;;;;;4999659;28;20189;-72
2022/11/09 06:01:04;;;;;;;10.23;6.90;;;8.90;92.70;;;;;;4982934;28;20181;-70
2022/11/09 06:03:30;;;;;;;12.50;7.73;;;8.90;92.70;;;;;;5005817;28;20188;-69
2022/11/09 06:06:04;;;;;;;14.20;8.00;;;8.90;92.80;;;;;;5002272;28;20287;-70
2022/11/09 06:08:30;;;;;;;9.37;7.27;;;9.00;92.80;;;;;;4984107;28;20319;-70
2022/11/09 06:11:02;;;;;;;14.23;7.40;;;9.00;92.80;;;;;;5002556;28;20661;-70
2022/11/09 06:13:28;;;;;;;14.50;8.40;;;9.00;92.60;;;;;;5002896;28;20555;-71
2022/11/09 06:15:55;;;;;;;10.40;7.97;;;9.10;92.80;;;;;;5005030;28;20193;-70
2022/11/09 06:18:25;;;;;;;11.20;7.87;;;9.10;92.70;;;;;;5004164;28;20185;-71
2022/11/09 06:20:55;;;;;;;9.20;7.47;;;9.20;92.60;;;;;;5003151;28;20255;-71
2022/11/09 06:23:24;;;;;;;12.40;7.82;;;9.20;92.40;;;;;;5002999;28;20173;-68
2022/11/09 06:25:58;;;;;;;14.17;8.23;;;9.30;92.90;;;;;;4988148;28;20224;-69
2022/11/09 06:28:24;;;;;;;13.10;8.73;;;9.40;92.70;;;;;;5003497;28;21021;-69
2022/11/09 06:30:50;;;;;;;17.17;8.60;;;9.50;92.80;;;;;;5001884;28;20186;-70
2022/11/09 06:33:16;;;;;;;11.30;8.50;;;9.50;92.10;;;;;;5004354;28;20878;-70
2022/11/09 06:35:41;;;;;;;14.13;8.55;;;9.60;92.60;;;;;;5005073;28;20195;-69
2022/11/09 06:38:09;;;;;;;17.37;9.10;;;9.80;92.70;;;;;;5005008;28;20185;-70
2022/11/09 06:40:35;;;;;;;18.58;8.60;;;10.00;92.90;;;;;;5004875;28;20288;-69
2022/11/09 06:43:02;;;;;;;13.48;8.77;;;10.20;93.70;;;;;;4986388;28;20271;-71
2022/11/09 06:45:29;;;;;;;12.73;9.23;;;10.60;94.40;;;;;;5003087;28;20774;-71
2022/11/09 06:47:56;;;;;;;12.05;9.13;;;11.00;94.60;;;;;;5002142;28;20185;-71
2022/11/09 06:50:22;;;;;;;15.68;8.85;;;11.50;95.00;;;;;;4984103;28;20387;-71
2022/11/09 06:52:48;;;;;;;18.38;10.57;;;12.00;94.40;;;;;;5001725;28;20332;-69
2022/11/09 06:55:14;;;;;;;17.90;9.48;;;12.40;94.40;;;;;;5002809;28;21064;-69
2022/11/09 06:57:39;;;;;;;15.55;11.02;;;12.90;93.50;;;;;;5001782;28;20204;-71
2022/11/09 07:00:06;;;;;;;16.85;10.95;;;13.40;92.80;;;;;;5003562;28;20189;-70
2022/11/09 07:02:32;;;;;;;18.42;11.05;;;13.80;87.70;;;;;;4986667;28;20693;-69
2022/11/09 07:04:57;;;;;;;17.98;10.00;;;14.20;89.10;;;;;;5005114;28;20208;-70
2022/11/09 07:07:23;;;;;;;18.90;10.13;;;14.70;88.40;;;;;;4986285;28;20192;-71
2022/11/09 07:09:49;;;;;;;15.82;11.10;;;15.10;86.30;;;;;;5003701;28;20184;-71
2022/11/09 07:12:14;;;;;;;18.38;11.30;;;15.50;85.80;;;;;;5004280;28;21064;-70
2022/11/09 07:14:40;;;;;;;19.08;11.13;;;15.90;83.20;;;;;;5003648;28;20185;-71
2022/11/09 07:17:05;;;;;;;23.33;12.25;;;16.30;82.00;;;;;;5003440;28;20181;-70
2022/11/09 07:19:31;;;;;;;18.77;12.45;;;16.60;82.20;;;;;;5003859;28;20177;-71
2022/11/09 07:21:57;;;;;;;19.00;11.98;;;17.00;80.70;;;;;;5003152;28;20200;-70
2022/11/09 07:24:23;;;;;;;18.30;11.48;;;17.40;80.10;;;;;;5003398;28;20573;-70
2022/11/09 07:26:49;;;;;;;17.92;12.30;;;17.80;78.60;;;;;;5004179;28;20192;-70
2022/11/09 07:29:15;;;;;;;19.30;11.65;;;18.10;76.90;;;;;;5007202;28;20292;-70
2022/11/09 07:31:41;;;;;;;18.90;12.68;;;18.30;76.00;;;;;;5008273;28;20275;-70
2022/11/09 07:34:07;;;;;;;16.55;12.10;;;18.50;74.80;;;;;;5009285;28;20201;-69
2022/11/09 07:36:35;;;;;;;15.95;12.32;;;18.80;75.20;;;;;;5007983;28;20181;-70
2022/11/09 07:39:01;;;;;;;19.25;13.02;;;19.20;75.30;;;;;;4989245;28;20188;-70
2022/11/09 07:41:26;;;;;;;21.20;13.93;;;19.50;74.00;;;;;;4989553;28;20626;-70
2022/11/09 07:43:52;;;;;;;20.25;13.70;;;19.90;73.40;;;;;;5009223;28;20185;-72
2022/11/09 07:46:18;;;;;;;20.30;14.05;;;20.10;72.20;;;;;;5007430;28;20204;-70
2022/11/09 07:48:43;;;;;;;18.25;13.55;;;20.40;72.30;;;;;;5008424;28;20229;-69
2022/11/09 07:51:09;;;;;;;21.85;13.38;;;20.60;71.30;;;;;;5008044;28;20181;-70
2022/11/09 07:53:34;;;;;;;18.30;13.35;;;20.90;70.10;;;;;;5007030;28;20570;-70
2022/11/09 07:56:02;;;;;;;20.73;13.82;;;21.10;70.80;;;;;;5007425;28;20707;-70
2022/11/09 07:58:28;;;;;;;18.58;13.35;;;21.40;69.10;;;;;;5006628;28;20188;-70
2022/11/09 08:00:55;;;;;;;17.60;13.35;;;21.60;69.60;;;;;;5007304;28;20192;-70
2022/11/09 08:03:21;;;;;;;19.20;14.35;;;21.90;68.80;;;;;;5008005;28;20185;-71
2022/11/09 08:05:47;;;;;;;21.35;14.70;;;22.10;68.20;;;;;;5006600;28;20245;-71
2022/11/09 08:08:15;;;;;;;18.45;14.27;;;22.40;67.90;;;;;;4987920;28;20926;-69
2022/11/09 08:10:42;;;;;;;19.15;13.73;;;22.70;67.30;;;;;;5003471;28;20185;-70
2022/11/09 08:13:12;;;;;;;22.38;13.88;;;23.00;66.80;;;;;;5007948;28;20189;-69
2022/11/09 08:15:38;;;;;;;20.13;14.15;;;23.40;65.70;;;;;;5005088;28;20193;-69
2022/11/09 08:18:06;;;;;;;18.77;14.00;;;23.70;64.50;;;;;;5007701;28;20188;-70
2022/11/09 08:20:33;;;;;;;15.77;13.02;;;23.70;65.00;;;;;;5006510;28;20260;-70
2022/11/09 08:22:59;;;;;;;16.48;13.68;;;23.90;65.00;;;;;;4988166;28;20196;-70
2022/11/09 08:25:25;;;;;;;21.17;13.57;;;24.00;64.30;;;;;;5004688;28;20615;-70
2022/11/09 08:27:50;;;;;;;20.70;12.95;;;24.30;64.30;;;;;;5002066;28;20276;-70
2022/11/09 08:30:19;;;;;;;22.42;13.40;;;24.60;63.70;;;;;;4991556;28;20192;-69
2022/11/09 08:32:45;;;;;;;16.60;13.10;;;25.10;63.50;;;;;;5009775;28;20208;-70
2022/11/09 08:35:16;;;;;;;19.35;13.88;;;25.30;62.30;;;;;;5009498;28;20216;-70
2022/11/09 08:37:43;;;;;;;19.48;14.10;;;25.40;62.20;;;;;;5006242;28;20165;-70
2022/11/09 08:40:09;;;;;;;19.15;13.80;;;25.60;62.30;;;;;;5004606;28;20624;-69
2022/11/09 08:42:34;;;;;;;19.23;15.23;;;25.90;61.70;;;;;;5005674;28;20185;-71
2022/11/09 08:45:00;;;;;;;21.15;14.40;;;26.20;61.30;;;;;;5002436;28;20232;-70
2022/11/09 08:47:27;;;;;;;20.35;14.18;;;26.60;61.00;;;;;;5006270;28;20180;-70
2022/11/09 08:49:52;;;;;;;23.50;15.13;;;26.90;60.40;;;;;;5007248;28;20192;-70
2022/11/09 08:52:18;;;;;;;17.75;14.15;;;27.20;59.70;;;;;;5004278;28;20177;-71
2022/11/09 08:54:44;;;;;;;22.38;14.38;;;27.60;58.60;;;;;;5005741;28;20193;-71
2022/11/09 08:57:09;;;;;;;17.55;13.48;;;27.80;58.40;;;;;;5006121;28;20189;-71
2022/11/09 08:59:35;;;;;;;18.02;13.50;;;27.90;58.50;;;;;;5002112;28;20221;-71
2022/11/09 09:02:01;;;;;;;22.50;15.20;;;28.00;57.80;;;;;;5001769;28;20177;-70
2022/11/09 09:04:27;;;;;;;21.98;14.77;;;27.90;57.50;;;;;;5002182;28;21050;-70
2022/11/09 09:06:52;;;;;;;22.88;15.75;;;27.80;57.80;;;;;;5006057;28;20566;-70
2022/11/09 09:09:18;;;;;;;20.77;14.55;;;27.80;57.60;;;;;;5005544;28;20181;-71
2022/11/09 09:11:44;;;;;;;16.73;13.77;;;27.80;58.20;;;;;;5005911;28;20256;-71
2022/11/09 09:14:09;;;;;;;22.42;14.80;;;27.90;56.00;;;;;;5003156;28;20209;-71
2022/11/09 09:16:35;;;;;;;21.85;15.05;;;28.10;55.30;;;;;;5005033;28;20177;-71
2022/11/09 09:19:01;;;;;;;23.00;15.18;;;28.10;53.00;;;;;;5006660;28;20240;-71
2022/11/09 09:21:26;;;;;;;20.85;15.43;;;28.10;55.10;;;;;;5008933;28;20243;-70
2022/11/09 09:23:53;;;;;;;20.13;15.38;;;27.80;56.60;;;;;;5006024;28;20187;-70
2022/11/09 09:26:18;;;;;;;18.15;14.65;;;27.80;54.90;;;;;;5004203;28;20267;-70
2022/11/09 09:28:44;;;;;;;18.00;14.18;;;27.70;56.90;;;;;;5004491;28;20185;-71
2022/11/09 09:31:10;;;;;;;19.70;14.07;;;27.70;56.00;;;;;;5005936;28;20631;-71
2022/11/09 09:33:35;;;;;;;18.90;15.13;;;27.90;55.30;;;;;;5006022;28;20734;-71
2022/11/09 09:36:01;;;;;;;18.55;14.13;;;28.10;55.60;;;;;;5005300;28;20654;-71
2022/11/09 09:38:27;;;;;;;21.13;15.55;;;28.10;56.60;;;;;;5003634;28;20192;-71
2022/11/09 09:41:00;;;;;;;20.58;15.13;;;28.10;55.40;;;;;;4988981;28;21003;-69
2022/11/09 09:43:41;;;;;;;18.25;14.43;;;28.00;55.30;;;;;;5004468;28;20221;-70
2022/11/09 09:46:24;;;;;;;18.33;14.25;;;28.00;57.10;;;;;;5003394;28;20255;-71
2022/11/09 09:48:58;;;;;;;18.50;14.07;;;28.10;56.90;;;;;;5003666;28;20219;-71
2022/11/09 09:51:28;;;;;;;18.20;14.55;;;28.40;57.10;;;;;;5003870;28;20275;-71
2022/11/09 09:54:36;;;;;;;17.27;14.40;;;28.70;54.90;;;;;;5003197;28;20196;-72
2022/11/09 09:57:02;;;;;;;23.20;16.60;;;28.80;55.70;;;;;;4926806;29;20191;-71
2022/11/09 09:59:41;;;;;;;19.40;15.23;;;28.80;55.00;;;;;;4909358;29;20309;-71
2022/11/09 10:02:27;;;;;;;20.65;14.77;;;29.00;55.70;;;;;;4927486;29;20212;-69
2022/11/09 10:04:56;;;;;;;22.75;16.20;;;29.40;53.20;;;;;;4922923;29;20231;-70
2022/11/09 10:07:40;;;;;;;21.17;15.55;;;29.70;53.70;;;;;;4925337;29;20187;-70
2022/11/09 10:10:21;;;;;;;30.58;17.42;;;29.90;52.90;;;;;;4923876;29;20292;-72
2022/11/09 10:13:13;;;;;;;25.30;17.98;;;29.60;50.70;;;;;;4923758;29;20294;-70
2022/11/09 10:15:41;;;;;;;24.20;17.35;;;29.20;50.00;;;;;;4926582;29;20298;-71
2022/11/09 10:18:37;;;;;;;24.40;17.98;;;28.60;51.00;;;;;;4923966;29;20701;-70
2022/11/09 10:21:21;;;;;;;21.02;16.63;;;27.90;52.70;;;;;;4927140;29;20730;-70
2022/11/09 10:24:06;;;;;;;25.80;17.77;;;27.00;55.50;;;;;;4923615;29;20207;-70
2022/11/09 10:26:46;;;;;;;23.70;16.92;;;26.20;57.40;;;;;;4922514;29;20603;-70
2022/11/09 10:29:24;;;;;;;30.45;17.98;;;25.60;56.80;;;;;;4921440;29;20755;-72
2022/11/09 10:32:08;;;;;;;26.13;17.23;;;25.00;56.40;;;;;;4985042;28;20195;-72
2022/11/09 10:35:00;;;;;;;22.98;15.55;;;24.70;58.80;;;;;;5001875;28;20180;-70
2022/11/09 10:37:35;;;;;;;25.15;14.75;;;24.50;57.30;;;;;;5000138;28;20181;-71
2022/11/09 10:40:24;;;;;;;22.58;14.60;;;24.50;59.30;;;;;;5000455;28;20185;-70
2022/11/09 10:42:55;;;;;;;21.15;15.73;;;24.20;57.40;;;;;;4932602;28;20203;-70
2022/11/09 10:45:36;;;;;;;25.33;14.95;;;23.80;57.50;;;;;;4932111;28;20744;-71
2022/11/09 10:48:04;;;;;;;23.20;14.40;;;23.70;59.90;;;;;;4932368;28;20191;-71
2022/11/09 10:50:53;;;;;;;18.92;13.38;;;23.60;59.80;;;;;;4932649;28;20206;-71
2022/11/09 10:53:22;;;;;;;20.55;14.75;;;23.50;58.50;;;;;;4931810;28;20202;-70
2022/11/09 10:55:52;;;;;;;19.63;13.30;;;23.40;59.20;;;;;;4932172;28;20200;-71
2022/11/09 10:58:17;;;;;;;17.70;12.93;;;23.50;60.40;;;;;;4933786;29;20195;-71
2022/11/09 11:01:05;;;;;;;17.58;12.63;;;23.90;60.10;;;;;;4931740;28;20210;-71
2022/11/09 11:03:35;;;;;;;16.95;13.25;;;24.40;59.70;;;;;;4931902;28;20199;-71
2022/11/09 11:06:05;;;;;;;19.55;13.88;;;24.90;59.30;;;;;;4932749;28;21374;-70
2022/11/09 11:08:39;;;;;;;20.23;14.13;;;25.30;55.80;;;;;;4932167;28;20277;-70
2022/11/09 11:11:17;;;;;;;24.73;14.18;;;25.60;56.80;;;;;;4931625;28;20194;-70
2022/11/09 11:13:43;;;;;;;16.00;12.60;;;25.90;56.90;;;;;;4931794;28;20226;-69
2022/11/09 11:16:36;;;;;;;17.52;13.00;;;26.20;56.90;;;;;;4931352;28;20188;-71
2022/11/09 11:19:02;;;;;;;19.67;13.20;;;26.70;55.40;;;;;;4938461;28;20236;-70
2022/11/09 11:21:28;;;;;;;16.88;12.68;;;27.00;56.00;;;;;;4999324;28;20177;-69
2022/11/09 11:24:18;;;;;;;18.90;12.10;;;27.50;55.60;;;;;;5000343;28;20192;-71
2022/11/09 11:27:00;;;;;;;15.93;11.75;;;27.90;53.80;;;;;;4998723;28;20193;-71
2022/11/09 11:29:47;;;;;;;18.88;13.57;;;28.20;54.00;;;;;;5000778;28;20875;-71
2022/11/09 11:32:18;;;;;;;19.02;13.45;;;28.60;55.00;;;;;;4999441;28;20193;-71
2022/11/09 11:34:45;;;;;;;16.23;11.95;;;29.00;54.10;;;;;;4997859;28;20189;-71
2022/11/09 11:37:58;;;;;;;19.75;14.85;;;29.30;53.90;;;;;;5001181;28;20181;-71
2022/11/09 11:40:33;;;;;;;17.25;13.00;;;29.40;50.90;;;;;;4938302;28;20195;-70
2022/11/09 11:43:20;;;;;;;15.88;12.57;;;29.60;53.00;;;;;;4938630;29;20841;-71
2022/11/09 11:46:04;;;;;;;19.23;12.52;;;29.70;49.40;;;;;;4938847;29;20238;-71
2022/11/09 11:49:03;;;;;;;17.60;12.85;;;29.90;53.10;;;;;;4938634;28;20357;-71
2022/11/09 11:51:41;;;;;;;16.95;13.73;;;30.20;51.00;;;;;;4939568;29;20233;-71
2022/11/09 11:54:18;;;;;;;16.40;12.35;;;30.30;51.60;;;;;;4940965;28;20190;-71
2022/11/09 11:56:51;;;;;;;16.55;12.75;;;30.30;51.10;;;;;;4937798;28;20744;-70
2022/11/09 11:59:32;;;;;;;15.75;12.88;;;30.30;51.40;;;;;;4939101;28;20397;-71
2022/11/09 12:02:23;;;;;;;18.25;13.23;;;30.20;49.60;;;;;;4938877;28;20212;-71
2022/11/09 12:05:15;;;;;;;15.50;13.63;;;30.10;51.80;;;;;;4936664;29;20313;-70
2022/11/09 12:08:07;;;;;;;17.33;13.15;;;30.10;50.60;;;;;;4937719;28;20195;-71
2022/11/09 12:10:42;;;;;;;17.65;13.07;;;30.20;51.40;;;;;;4952351;28;20573;-71
2022/11/09 12:13:29;;;;;;;18.10;13.45;;;30.20;49.70;;;;;;5000575;28;20188;-70
2022/11/09 12:16:12;;;;;;;17.00;14.05;;;30.30;49.20;;;;;;5003913;28;20192;-70
2022/11/09 12:19:02;;;;;;;23.17;12.80;;;30.20;47.60;;;;;;4984096;28;20177;-71
2022/11/09 12:21:40;;;;;;;19.52;13.80;;;30.00;49.20;;;;;;5003057;28;20582;-71
2022/11/09 12:24:35;;;;;;;18.10;13.77;;;29.90;50.40;;;;;;5001847;28;20236;-70
2022/11/09 12:27:16;;;;;;;21.48;13.82;;;29.70;48.80;;;;;;5005094;28;20275;-70
2022/11/09 12:30:01;;;;;;;16.15;13.15;;;29.60;48.70;;;;;;5001413;28;20182;-71
2022/11/09 12:32:43;;;;;;;14.32;12.45;;;29.60;50.00;;;;;;5000902;28;20208;-71
2022/11/09 12:35:32;;;;;;;17.13;13.32;;;29.60;49.70;;;;;;5004228;28;20599;-71
2022/11/09 12:38:11;;;;;;;16.98;13.23;;;29.60;48.80;;;;;;5003692;28;20568;-70
2022/11/09 12:40:43;;;;;;;17.20;12.07;;;29.40;48.50;;;;;;5001865;28;20732;-70
2022/11/09 12:43:29;;;;;;;14.43;12.18;;;29.20;51.10;;;;;;5001378;28;20196;-70
2022/11/09 12:45:56;;;;;;;20.30;13.43;;;29.00;51.30;;;;;;5004765;28;21783;-70
2022/11/09 12:48:31;;;;;;;15.05;12.60;;;28.90;50.90;;;;;;5002374;28;20192;-70